createdAt,value
2023-01-31T00:01:30.855Z,-23701.08
2023-01-31T00:08:15.632Z,-23702.41
2023-01-31T00:10:44.121Z,-23702.34
2023-01-31T00:13:12.517Z,-23702.69
2023-01-31T00:15:40.639Z,-23702.69
2023-01-31T00:18:08.795Z,-23702.78
2023-01-31T00:20:37.130Z,-23703.17
2023-01-31T00:23:05.253Z,-23703.61
2023-01-31T00:25:33.451Z,-23703.67
2023-01-31T00:28:01.646Z,-23704.05
2023-01-31T00:30:29.951Z,-23703.92
2023-01-31T00:32:58.116Z,-23703.77
2023-01-31T00:35:26.350Z,-23703.83
2023-01-31T00:37:54.773Z,-23703.86
2023-01-31T00:40:22.933Z,-23704.05
2023-01-31T00:42:51.252Z,-23704.46
2023-01-31T00:45:19.836Z,-23704.93
2023-01-31T00:47:48.105Z,-23705.25
2023-01-31T00:50:18.493Z,-23705.56
2023-01-31T00:52:46.811Z,-23705.88
2023-01-31T00:55:15.000Z,-23706.45
2023-01-31T00:57:43.321Z,-23706.83
2023-01-31T01:00:12.278Z,-23706.95
2023-01-31T01:02:41.325Z,-23707.08
2023-01-31T01:05:09.711Z,-23706.80
2023-01-31T01:07:37.967Z,-23706.80
2023-01-31T01:10:06.729Z,-23706.70
2023-01-31T01:12:34.872Z,-23707.05
2023-01-31T01:15:03.961Z,-23707.21
2023-01-31T01:17:32.709Z,-23707.27
2023-01-31T01:20:03.906Z,-23707.64
2023-01-31T01:22:34.304Z,-23707.61
2023-01-31T01:25:03.247Z,-23707.71
2023-01-31T01:27:32.733Z,-23708.09
2023-01-31T01:30:02.147Z,-23708.91
2023-01-31T01:32:30.966Z,-23709.13
2023-01-31T01:34:59.058Z,-23709.54
2023-01-31T01:37:27.204Z,-23710.08
2023-01-31T01:39:55.261Z,-23710.27
2023-01-31T01:42:25.761Z,-23710.21
2023-01-31T01:44:58.991Z,-23710.43
2023-01-31T01:47:36.308Z,-23710.62
2023-01-31T01:50:24.441Z,-23711.06
2023-01-31T01:53:03.364Z,-23711.72
2023-01-31T01:55:42.030Z,-23711.88
2023-01-31T01:58:14.493Z,-23712.22
2023-01-31T02:00:44.591Z,-23712.86
2023-01-31T02:03:12.909Z,-23713.30
2023-01-31T02:05:53.004Z,-23713.74
2023-01-31T02:08:22.528Z,-23714.25
2023-01-31T02:11:06.911Z,-23714.43
2023-01-31T02:13:35.016Z,-23714.78
2023-01-31T02:16:03.123Z,-23715.04
2023-01-31T02:18:32.559Z,-23715.04
2023-01-31T02:21:18.880Z,-23715.19
2023-01-31T02:23:50.225Z,-23715.73
2023-01-31T02:26:37.184Z,-23716.49
2023-01-31T02:29:30.343Z,-23717.08
2023-01-31T02:32:30.095Z,-23717.62
2023-01-31T02:35:13.304Z,-23717.88
2023-01-31T02:37:41.480Z,-23718.07
2023-01-31T02:40:17.560Z,-23718.22
2023-01-31T02:42:53.249Z,-23718.22
2023-01-31T02:45:43.632Z,-23718.41
2023-01-31T02:48:33.522Z,-23718.63
2023-01-31T02:51:08.447Z,-23719.32
2023-01-31T02:53:54.433Z,-23719.32
2023-01-31T02:56:25.068Z,-23719.51
2023-01-31T02:59:20.729Z,-23719.70
2023-01-31T03:01:55.426Z,-23719.93
2023-01-31T03:04:24.041Z,-23720.81
2023-01-31T03:07:01.997Z,-23721.25
2023-01-31T03:09:48.194Z,-23721.25
2023-01-31T03:12:36.822Z,-23721.22
2023-01-31T03:16:01.407Z,-23721.22
2023-01-31T03:18:35.425Z,-23721.06
2023-01-31T03:21:10.293Z,-23721.35
2023-01-31T03:23:38.583Z,-23721.57
2023-01-31T03:26:06.913Z,-23721.88
2023-01-31T03:28:40.381Z,-23722.42
2023-01-31T03:31:52.648Z,-23722.64
2023-01-31T03:34:21.439Z,-23723.24
2023-01-31T03:36:56.436Z,-23723.75
2023-01-31T03:39:54.055Z,-23724.28
2023-01-31T03:42:39.000Z,-23724.60
2023-01-31T03:45:25.925Z,-23725.13
2023-01-31T03:47:56.907Z,-23725.70
2023-01-31T03:50:31.105Z,-23726.14
2023-01-31T03:53:21.041Z,-23726.52
2023-01-31T03:55:54.553Z,-23726.96
2023-01-31T03:58:25.340Z,-23727.37
2023-01-31T04:00:53.559Z,-23727.81
2023-01-31T04:03:23.874Z,-23728.29
2023-01-31T04:05:52.146Z,-23729.01
2023-01-31T04:08:21.329Z,-23729.71
2023-01-31T04:10:56.487Z,-23730.28
2023-01-31T04:13:25.580Z,-23730.81
2023-01-31T04:15:53.701Z,-23731.38
2023-01-31T04:18:22.813Z,-23731.63
2023-01-31T04:20:50.914Z,-23732.17
2023-01-31T04:23:19.286Z,-23732.39
2023-01-31T04:25:48.412Z,-23732.52
2023-01-31T04:28:16.684Z,-23732.96
2023-01-31T04:30:45.009Z,-23733.27
2023-01-31T04:33:13.809Z,-23734.06
2023-01-31T04:35:42.134Z,-23734.63
2023-01-31T04:38:10.238Z,-23735.35
2023-01-31T04:40:39.089Z,-23735.82
2023-01-31T04:43:08.262Z,-23736.02
2023-01-31T04:45:36.607Z,-23736.68
2023-01-31T04:48:05.137Z,-23737.15
2023-01-31T04:50:33.976Z,-23737.59
2023-01-31T04:53:02.184Z,-23737.82
2023-01-31T04:55:30.695Z,-23738.01
2023-01-31T04:57:58.853Z,-23738.54
2023-01-31T05:00:27.186Z,-23739.27
2023-01-31T05:02:55.537Z,-23739.74
2023-01-31T05:05:23.777Z,-23740.27
2023-01-31T05:07:52.089Z,-23740.75
2023-01-31T05:10:20.157Z,-23741.19
2023-01-31T05:12:48.413Z,-23741.60
2023-01-31T05:15:21.262Z,-23742.19
2023-01-31T05:17:53.691Z,-23742.16
2023-01-31T05:20:21.775Z,-23742.23
2023-01-31T05:22:49.927Z,-23742.41
2023-01-31T05:25:18.417Z,-23742.61
2023-01-31T05:27:46.904Z,-23742.83
2023-01-31T05:30:15.521Z,-23743.27
2023-01-31T05:32:46.960Z,-23743.68
2023-01-31T05:35:15.055Z,-23743.87
2023-01-31T05:37:43.513Z,-23743.99
2023-01-31T05:40:15.847Z,-23744.28
2023-01-31T05:42:44.022Z,-23744.56
2023-01-31T05:45:12.590Z,-23744.97
2023-01-31T05:47:41.007Z,-23745.04
2023-01-31T05:50:10.842Z,-23745.04
2023-01-31T05:52:39.426Z,-23745.10
2023-01-31T05:55:07.998Z,-23745.32
2023-01-31T05:57:36.501Z,-23745.66
2023-01-31T06:00:05.084Z,-23746.01
2023-01-31T06:02:40.732Z,-23746.30
2023-01-31T06:05:09.692Z,-23746.20
2023-01-31T06:07:46.862Z,-23746.58
2023-01-31T06:10:15.658Z,-23746.89
2023-01-31T06:12:43.840Z,-23747.12
2023-01-31T06:15:12.498Z,-23747.18
2023-01-31T06:17:41.287Z,-23746.99
2023-01-31T06:20:10.213Z,-23747.68
2023-01-31T06:22:38.576Z,-23748.76
2023-01-31T06:25:08.659Z,-23750.27
2023-01-31T06:27:40.715Z,-23751.97
2023-01-31T06:30:09.591Z,-23753.23
2023-01-31T06:32:37.755Z,-23754.15
2023-01-31T06:35:06.182Z,-23755.28
2023-01-31T06:37:36.118Z,-23756.23
2023-01-31T06:40:04.761Z,-23757.05
2023-01-31T06:42:32.986Z,-23757.74
2023-01-31T06:45:01.409Z,-23757.87
2023-01-31T06:47:30.617Z,-23758.46
2023-01-31T06:49:59.077Z,-23759.22
2023-01-31T06:52:27.305Z,-23760.07
2023-01-31T06:54:55.481Z,-23760.95
2023-01-31T06:57:23.692Z,-23761.74
2023-01-31T06:59:53.410Z,-23762.21
2023-01-31T07:02:21.725Z,-23762.31
2023-01-31T07:04:51.306Z,-23762.59
2023-01-31T07:07:23.411Z,-23763.41
2023-01-31T07:09:51.578Z,-23764.58
2023-01-31T07:12:19.834Z,-23765.21
2023-01-31T07:14:47.948Z,-23766.06
2023-01-31T07:17:16.643Z,-23767.29
2023-01-31T07:19:44.961Z,-23768.30
2023-01-31T07:22:13.301Z,-23769.53
2023-01-31T07:24:41.648Z,-23770.51
2023-01-31T07:27:13.166Z,-23769.97
2023-01-31T07:29:41.357Z,-23769.40
2023-01-31T07:32:09.783Z,-23768.27
2023-01-31T07:34:38.998Z,-23767.00
2023-01-31T07:37:07.286Z,-23766.19
2023-01-31T07:39:35.742Z,-23765.43
2023-01-31T07:42:08.148Z,-23765.21
2023-01-31T07:44:36.991Z,-23765.30
2023-01-31T07:47:05.086Z,-23765.65
2023-01-31T07:49:33.920Z,-23765.81
2023-01-31T07:52:02.213Z,-23766.56
2023-01-31T07:54:30.764Z,-23767.19
2023-01-31T07:56:58.898Z,-23768.29
2023-01-31T07:59:27.058Z,-23769.12
2023-01-31T08:02:13.726Z,-23769.21
2023-01-31T08:04:41.856Z,-23770.35
2023-01-31T08:07:10.385Z,-23771.86
2023-01-31T08:09:39.289Z,-23773.93
2023-01-31T08:12:08.237Z,-23776.18
2023-01-31T08:14:36.435Z,-23778.13
2023-01-31T08:17:07.003Z,-23780.05
2023-01-31T08:19:36.110Z,-23782.06
2023-01-31T08:22:07.254Z,-23783.67
2023-01-31T08:24:36.243Z,-23785.46
2023-01-31T08:27:04.791Z,-23786.60
2023-01-31T08:29:33.149Z,-23787.92
2023-01-31T08:32:03.257Z,-23789.56
2023-01-31T08:34:33.424Z,-23790.75
2023-01-31T08:37:02.059Z,-23791.51
2023-01-31T08:39:30.533Z,-23792.30
2023-01-31T08:41:58.681Z,-23792.46
2023-01-31T08:44:26.886Z,-23792.74
2023-01-31T08:46:55.276Z,-23793.37
2023-01-31T08:49:23.512Z,-23792.99
2023-01-31T08:51:54.406Z,-23793.08
2023-01-31T08:54:22.539Z,-23792.55
2023-01-31T08:56:50.810Z,-23791.45
2023-01-31T08:59:19.032Z,-23790.60
2023-01-31T09:01:48.123Z,-23791.01
2023-01-31T09:04:16.421Z,-23791.51
2023-01-31T09:06:44.810Z,-23791.29
2023-01-31T09:09:13.829Z,-23791.48
2023-01-31T09:11:42.067Z,-23792.02
2023-01-31T09:14:11.149Z,-23792.96
2023-01-31T09:16:40.423Z,-23793.84
2023-01-31T09:19:09.515Z,-23794.63
2023-01-31T09:21:38.398Z,-23796.17
2023-01-31T09:24:06.919Z,-23797.74
2023-01-31T09:26:35.160Z,-23799.54
2023-01-31T09:29:03.700Z,-23801.30
2023-01-31T09:31:33.368Z,-23802.03
2023-01-31T09:34:01.852Z,-23800.77
2023-01-31T09:36:31.057Z,-23799.79
2023-01-31T09:38:59.631Z,-23799.32
2023-01-31T09:41:37.324Z,-23798.79
2023-01-31T09:44:07.590Z,-23799.13
2023-01-31T09:47:04.452Z,-23799.41
2023-01-31T09:49:37.438Z,-23799.95
2023-01-31T09:52:05.682Z,-23801.65
2023-01-31T09:54:36.272Z,-23802.50
2023-01-31T09:57:22.758Z,-23802.28
2023-01-31T10:00:13.377Z,-23801.39
2023-01-31T10:03:06.452Z,-23800.36
2023-01-31T10:05:41.106Z,-23799.60
2023-01-31T13:28:57.457Z,-23814.11
2023-01-31T13:31:30.783Z,-23815.05
2023-01-31T13:34:05.278Z,-23814.86
2023-01-31T13:36:40.875Z,-23814.58
2023-01-31T13:39:16.012Z,-23814.36
2023-01-31T13:41:50.532Z,-23813.67
2023-01-31T13:44:20.903Z,-23813.48
2023-01-31T13:46:51.279Z,-23813.16
2023-01-31T13:49:23.745Z,-23812.82
2023-01-31T13:51:59.281Z,-23812.75
2023-01-31T13:54:37.216Z,-23813.00
2023-01-31T13:57:06.263Z,-23813.13
2023-01-31T13:59:37.911Z,-23813.26
2023-01-31T14:02:08.964Z,-23813.17
2023-01-31T14:04:40.301Z,-23813.20
2023-01-31T14:07:19.636Z,-23813.54
2023-01-31T14:09:51.599Z,-23814.48
2023-01-31T14:12:19.827Z,-23815.02
2023-01-31T14:14:48.841Z,-23814.99
2023-01-31T14:17:29.299Z,-23815.05
2023-01-31T14:20:03.497Z,-23815.68
2023-01-31T14:22:36.533Z,-23816.06
2023-01-31T14:25:14.926Z,-23815.87
2023-01-31T14:27:51.422Z,-23815.81
2023-01-31T14:30:42.366Z,-23815.93
2023-01-31T14:33:13.548Z,-23816.37
2023-01-31T14:35:51.921Z,-23816.72
2023-01-31T14:38:43.335Z,-23817.41
2023-01-31T14:41:33.330Z,-23817.57
2023-01-31T14:44:05.081Z,-23817.16
2023-01-31T14:46:34.617Z,-23817.44
2023-01-31T14:49:24.667Z,-23817.76
2023-01-31T14:52:43.610Z,-23817.98
2023-01-31T14:55:26.710Z,-23817.73
2023-01-31T14:57:58.532Z,-23818.04
2023-01-31T15:00:29.183Z,-23818.48
2023-01-31T15:03:02.253Z,-23818.70
2023-01-31T15:05:36.733Z,-23818.55
2023-01-31T15:08:14.691Z,-23818.64
2023-01-31T15:11:05.005Z,-23818.48
2023-01-31T15:13:37.912Z,-23818.52
2023-01-31T15:16:24.513Z,-23818.33
2023-01-31T15:19:20.418Z,-23818.39
2023-01-31T15:21:53.491Z,-23818.01
2023-01-31T15:24:35.905Z,-23817.88
2023-01-31T15:27:04.812Z,-23817.79
2023-01-31T15:29:44.257Z,-23817.35
2023-01-31T15:32:27.128Z,-23817.16
2023-01-31T15:35:34.285Z,-23817.16
2023-01-31T15:38:32.860Z,-23817.41
2023-01-31T15:41:07.594Z,-23817.44
2023-01-31T15:43:39.708Z,-23817.44
2023-01-31T15:46:36.100Z,-23817.16
2023-01-31T15:49:32.722Z,-23817.32
2023-01-31T15:52:06.191Z,-23817.29
2023-01-31T15:54:35.164Z,-23817.32
2023-01-31T15:57:03.512Z,-23817.63
2023-01-31T15:59:33.123Z,-23817.66
2023-01-31T16:02:02.545Z,-23817.98
2023-01-31T16:04:30.932Z,-23818.17
2023-01-31T16:07:01.468Z,-23817.95
2023-01-31T16:09:31.172Z,-23817.79
2023-01-31T16:11:59.676Z,-23818.04
2023-01-31T16:14:28.276Z,-23818.01
2023-01-31T16:16:57.152Z,-23817.98
2023-01-31T16:19:30.869Z,-23818.13
2023-01-31T16:21:59.325Z,-23818.04
2023-01-31T16:24:27.615Z,-23818.14
2023-01-31T16:27:01.833Z,-23817.13
2023-01-31T16:29:38.378Z,-23816.06
2023-01-31T16:32:23.063Z,-23815.46
2023-01-31T16:34:58.496Z,-23814.77
2023-01-31T16:37:36.672Z,-23813.92
2023-01-31T16:40:08.531Z,-23813.04
2023-01-31T16:42:38.845Z,-23812.60
2023-01-31T16:45:26.972Z,-23812.35
2023-01-31T16:47:56.518Z,-23811.84
2023-01-31T16:50:41.807Z,-23811.53
2023-01-31T16:53:25.488Z,-23811.03
2023-01-31T16:56:15.513Z,-23810.62
2023-01-31T16:58:52.584Z,-23810.52
2023-01-31T17:01:23.677Z,-23810.02
2023-01-31T17:04:04.071Z,-23809.64
2023-01-31T17:06:32.500Z,-23809.07
2023-01-31T17:09:06.083Z,-23808.57
2023-01-31T17:11:42.788Z,-23807.82
2023-01-31T17:14:12.386Z,-23807.44
2023-01-31T17:16:40.440Z,-23806.88
2023-01-31T17:19:08.807Z,-23806.37
2023-01-31T17:21:41.183Z,-23806.02
2023-01-31T17:24:16.949Z,-23805.87
2023-01-31T17:26:45.983Z,-23805.74
2023-01-31T17:29:14.071Z,-23805.14
2023-01-31T17:31:42.398Z,-23805.05
2023-01-31T17:34:14.375Z,-23804.82
2023-01-31T17:36:46.467Z,-23805.11
2023-01-31T17:39:15.059Z,-23805.61
2023-01-31T17:41:46.893Z,-23805.96
2023-01-31T17:44:15.512Z,-23805.99
2023-01-31T17:46:44.321Z,-23805.86
2023-01-31T17:49:14.515Z,-23805.71
2023-01-31T17:51:42.731Z,-23805.14
2023-01-31T17:54:11.500Z,-23804.64
2023-01-31T17:56:39.729Z,-23804.48
2023-01-31T17:59:12.339Z,-23803.88
2023-01-31T18:01:43.541Z,-23803.06
2023-01-31T18:04:11.699Z,-23802.28
2023-01-31T18:06:40.559Z,-23800.64
2023-01-31T18:09:10.246Z,-23799.04
2023-01-31T18:11:39.017Z,-23797.71
2023-01-31T18:14:07.287Z,-23796.68
2023-01-31T18:16:35.331Z,-23796.14
2023-01-31T18:19:03.578Z,-23795.76
2023-01-31T18:21:31.645Z,-23795.45
2023-01-31T18:24:00.524Z,-23795.54
2023-01-31T18:26:28.756Z,-23795.54
2023-01-31T18:28:57.679Z,-23795.82
2023-01-31T18:31:26.207Z,-23795.73
2023-01-31T18:33:54.308Z,-23795.67
2023-01-31T18:36:22.442Z,-23795.38
2023-01-31T18:38:50.768Z,-23794.97
2023-01-31T18:41:19.750Z,-23794.79
2023-01-31T18:43:48.235Z,-23794.94
2023-01-31T18:46:17.274Z,-23794.82
2023-01-31T18:48:45.544Z,-23795.29
2023-01-31T18:51:16.670Z,-23795.64
2023-01-31T18:53:46.098Z,-23795.64
2023-01-31T18:56:17.174Z,-23795.67
2023-01-31T18:58:45.798Z,-23795.73
2023-01-31T19:01:17.897Z,-23796.14
2023-01-31T19:03:46.992Z,-23796.20
2023-01-31T19:06:18.516Z,-23796.11
2023-01-31T22:30:53.619Z,-23778.28
2023-01-31T22:33:21.985Z,-23778.76
2023-01-31T22:35:51.744Z,-23778.50
2023-01-31T22:38:19.909Z,-23778.32
2023-01-31T22:40:48.001Z,-23778.16
2023-01-31T22:43:17.938Z,-23778.00
2023-01-31T22:45:46.830Z,-23777.81
2023-01-31T22:48:16.901Z,-23777.43
2023-01-31T22:50:45.113Z,-23777.21
2023-01-31T22:53:13.167Z,-23777.59
2023-01-31T22:55:41.909Z,-23777.66
2023-01-31T22:58:10.091Z,-23777.69
2023-01-31T23:00:40.106Z,-23777.81
2023-01-31T23:03:08.298Z,-23777.91
2023-01-31T23:05:40.155Z,-23777.94
2023-01-31T23:08:08.760Z,-23777.97
2023-01-31T23:10:36.828Z,-23777.97
2023-01-31T23:13:05.729Z,-23778.25
2023-01-31T23:15:34.073Z,-23778.34
2023-01-31T23:18:22.007Z,-23778.28
2023-01-31T23:20:50.380Z,-23777.78
2023-01-31T23:23:18.451Z,-23777.59
2023-01-31T23:25:46.718Z,-23777.46
2023-01-31T23:28:15.158Z,-23777.28
2023-01-31T23:30:46.803Z,-23777.09
2023-01-31T23:33:15.027Z,-23777.09
2023-01-31T23:35:43.563Z,-23777.34
2023-01-31T23:38:11.879Z,-23777.43
2023-01-31T23:40:40.433Z,-23777.43
2023-01-31T23:43:09.106Z,-23777.46
2023-01-31T23:45:37.236Z,-23777.66
2023-01-31T23:48:05.458Z,-23777.37
2023-01-31T23:50:33.453Z,-23777.21
2023-01-31T23:53:05.202Z,-23776.89
2023-01-31T23:55:33.505Z,-23776.99
2023-01-31T23:58:01.627Z,-23777.15
